Oakdale, Kentucky
Current Conditions -  °F | °C
As of 11:53 PM on Wednesday 28 Jan 2015 (Local Time) from KPAH Reporting Station
Broken Clouds Broken Clouds  
Wind Chill: 10°   Ceiling: 10000
Heat Index: 10°   Visibility: 10mi
Dew Point: -1°   Wind: 10mph
Humidity: 48%   Direction: 190°S
Pressure: 29.99"   Gusts: 18mph
Location:  37.0331°N, 88.716°W
Report Text: KPAH 290553Z AUTO 19009G16KT 10SM BKN100 10/M01 A2999 RMK AO2 SLP155 T01001006 10100 20056 401001044 58015
Loading
Personal Weather Stations






























Interactive Weather Map New forecast layout! Learn more

10-Day Weather Forecast

Advertisements
Track Severe Weather on mobile